x

Southeast Bering Sea -205nm Wnw Of Dutch Harbor, Ak (46073) Wave Buoy

4:50 - Wed 18th Jan 2017 All times are UTC.

  • Sig Wave height 16.1ft
  • Swell Direction
  • Peak Period 9s
  • Average Period 7s
  • Wind
    40mph, 51mph gusts
  • Sea Temp 38°f
  • Sea Pressure 983.2mb

More Historic Weather Station data

Upgrade to MSW Pro to gain access to the past 30 days of data for over 8000 Wavebouys and Weather Stations around the globe.

Join Pro

Comparision Forecast

View Surf forecast
   
mié 01/18 4:50 16ft 9s 7s 40 51 mph 983.2mb 38f
3:50 14ft 8s 7s 40 47 mph 985mb 39f
2:50 11ft 8s 6s 38 45 mph 986.5mb 39f
1:50 10ft 7s 6s 36 45 mph 988.4mb 39f
11:50 7ft 6s 6s 29 36 mph 991.7mb 39f
10:50 6.5ft 10s 5s 27 36 mph 992.9mb 39f
9:50 4.5ft 11s 6s 29 34 mph 993.4mb 39f
8:50 4.5ft 9s 7s 11 13 mph 994.7mb 39f
7:50 4ft 8s 7s 20 22 mph 994.8mb 39f
6:50 4.5ft 9s 7s 9 13 mph 995.1mb 39f
5:50 4.5ft 9s 7s 4 9 mph 995.6mb 39f
4:50 4ft 9s 6s 7 9 mph 995.9mb 39f
3:50 4.5ft 9s 7s 7 9 mph 995.5mb 39f
2:50 4.5ft 8s 7s 4 9 mph 995.9mb 39f
12:50 4.5ft 8s 6s 4 9 mph 995.9mb 39f
mar 01/17 11:50 4.5ft 8s 6s 2 9 mph 996.1mb 39f
10:50 5ft 8s 6s 11 13 mph 996.3mb 39f
9:50 5ft 8s 6s  -  4 mph 996.6mb 38f
8:50 4.5ft 8s 6s 7 9 mph 996.3mb 38f
7:50 4.5ft 8s 6s 4 7 mph 996.3mb 38f
6:50 5ft 8s 6s  -  2 mph 996.1mb 39f
5:50 5ft 8s 6s 9 13 mph 995.6mb 39f
4:50 5ft 8s 6s 11 18 mph 995mb 39f
3:50 5.5ft 9s 6s 4 9 mph 995.1mb 39f
2:50 5ft 8s 6s 2 7 mph 995mb 39f
1:50 5ft 8s 6s 4 9 mph 995.1mb 39f
12:50 5.5ft 9s 6s 11 16 mph 995mb 39f
11:50 5.5ft 8s 6s 9 13 mph 995.1mb 39f
10:50 5.5ft 9s 6s 4 9 mph 995.1mb 39f
9:50 6ft 8s 7s 11 18 mph 995mb 39f
8:50 6ft 9s 7s 4 9 mph 995mb 39f
7:50 6.5ft 9s 7s 9 13 mph 994.7mb 39f
6:50 6ft 9s 7s 9 13 mph 994.5mb 39f
5:50 6ft 9s 7s 9 16 mph 994.4mb 39f
4:50 6.5ft 9s 7s 9 13 mph 994.3mb 39f
3:50 6ft 8s 7s 16 20 mph 994mb 39f
2:50 6ft 9s 6s 16 20 mph 993.8mb 39f
1:50 6ft 9s 6s 16 18 mph 993.7mb 39f
12:50 6ft 9s 6s 16 20 mph 994mb 39f
lun 01/16 11:50 6ft 10s 6s 13 20 mph 994.4mb 39f
10:50 6ft 9s 6s 13 22 mph 995.1mb 39f
9:50 6ft 10s 6s 20 22 mph 995.2mb 39f
8:50 6ft 9s 7s 20 25 mph 994.9mb 39f
7:50 6ft 10s 7s 11 16 mph 995.1mb 39f
6:50 6ft 9s 7s 13 18 mph 994.8mb 39f
5:50 5.5ft 9s 7s 11 16 mph 995.2mb 39f
4:50 6ft 9s 7s 9 11 mph 995.3mb 39f
3:50 5ft 9s 7s 9 13 mph 995.8mb 39f
2:50 5.5ft 9s 7s 7 13 mph 996.1mb 39f
1:50 5ft 10s 7s 4 9 mph 996.5mb 39f
12:50 5ft 10s 7s 9 13 mph 996.7mb 39f
11:50 5ft 9s 7s 9 11 mph 997.2mb 39f
10:50 5.5ft 10s 7s 11 16 mph 997.7mb 39f
9:50 5.5ft 9s 7s 13 18 mph 997.7mb 39f
8:50 6ft 10s 7s  -  4 mph 998mb 39f
7:50 6.5ft 10s 7s 2 9 mph 998.2mb 39f
6:50 7ft 9s 8s 4 7 mph 998.2mb 39f
5:50 6.5ft 10s 7s 2 9 mph 998.5mb 39f
4:50 6.5ft 9s 7s 4 9 mph 998.7mb 39f
3:50 6ft 9s 7s 7 11 mph 998.8mb 39f
2:50 6.5ft 10s 7s 4 11 mph 999.2mb 39f
1:50 7ft 10s 7s 7 11 mph 999.5mb 39f
12:50 8ft 11s 8s 4 11 mph 1000.1mb 39f
dom 01/15 11:50 8ft 11s 7s 4 11 mph 1000.7mb 39f
10:50 8ft 11s 7s 9 16 mph 1001.1mb 39f
9:50 8ft 11s 7s 13 18 mph 1001.3mb 39f
8:50 9ft 11s 8s 11 13 mph 1001.3mb 39f
7:50 9ft 11s 8s 16 20 mph 1001.2mb 39f
6:50 8ft 11s 8s 7 16 mph 1001.4mb 39f
5:50 8.5ft 10s 7s 18 22 mph 1001.3mb 39f
4:50 9ft 11s 7s 11 18 mph 1001.4mb 39f
3:50 8ft 11s 7s 11 16 mph 1001.8mb 39f
2:50 9ft 11s 8s 13 18 mph 1002.1mb 39f
1:50 9ft 11s 8s 9 16 mph 1002.4mb 39f
12:50 9ft 11s 7s 13 18 mph 1002.4mb 39f
11:50 9ft 11s 8s 7 13 mph 1003mb 39f
10:50 9ft 11s 7s 18 22 mph 1003mb 39f
9:50 9ft 11s 8s 11 16 mph 1003.4mb 39f
8:50 10ft 11s 8s 18 22 mph 1003.2mb 39f
7:50 9ft 11s 7s 13 18 mph 1003.3mb 39f
6:50 10ft 11s 8s 22 27 mph 1003mb 39f
5:50 9ft 11s 8s 11 16 mph 1003.3mb 39f
4:50 10ft 12s 8s 9 13 mph 1003.5mb 39f
3:50 9.5ft 11s 8s 2 7 mph 1003.5mb 39f
2:50 10.5ft 11s 8s 11 18 mph 1003.6mb 39f
1:50 10.5ft 11s 8s 11 16 mph 1003.2mb 39f
12:50 11ft 11s 8s 11 18 mph 1003.3mb 39f
sáb 01/14 11:50 11.5ft 10s 8s 7 11 mph 1003.9mb 39f
10:50 10ft 11s 8s 9 16 mph 1004.1mb 39f
9:50 11ft 11s 8s 7 11 mph 1004.2mb 39f
8:50 11ft 10s 8s 13 20 mph 1004mb 39f
7:50 10.5ft 11s 8s 9 16 mph 1003.7mb 39f
6:50 11ft 11s 8s 20 25 mph 1003.1mb 39f